createdAt,value
2019-05-02T05:39:43.086Z,1001.48
2019-05-02T05:40:42.065Z,1001.52
2019-05-02T05:41:42.814Z,1001.56
2019-05-02T05:42:43.055Z,1001.60
2019-05-02T05:43:44.895Z,1001.50
2019-05-02T05:44:43.017Z,1001.55
2019-05-02T05:45:53.554Z,1001.58
2019-05-02T05:46:43.000Z,1001.53
2019-05-02T05:47:41.998Z,1001.64
2019-05-02T05:48:41.979Z,1001.54
2019-05-02T05:49:41.964Z,1001.58
2019-05-02T05:50:41.962Z,1001.54
2019-05-02T05:51:41.947Z,1001.48
2019-05-02T05:52:42.601Z,1001.54
2019-05-02T05:53:41.927Z,1001.56
2019-05-02T05:54:42.207Z,1001.54
2019-05-02T05:55:41.902Z,1001.49
2019-05-02T05:56:43.215Z,1001.50
2019-05-02T05:57:41.906Z,1001.55
2019-05-02T05:58:48.052Z,1001.49
2019-05-02T05:59:42.858Z,1001.49
2019-05-02T06:00:45.954Z,1001.49
2019-05-02T06:01:42.840Z,1001.46
2019-05-02T06:02:52.837Z,1001.46
2019-05-02T06:03:45.007Z,1001.45
2019-05-02T06:04:41.798Z,1001.45
2019-05-02T06:05:42.304Z,1001.41
2019-05-02T06:06:41.777Z,1001.41
2019-05-02T06:07:44.811Z,1001.38
2019-05-02T06:08:41.766Z,1001.44
2019-05-02T06:09:41.749Z,1001.42
2019-05-02T06:10:43.981Z,1001.46
2019-05-02T06:11:41.728Z,1001.42
2019-05-02T06:12:41.716Z,1001.45
2019-05-02T06:13:42.962Z,1001.48
2019-05-02T06:14:42.691Z,1001.40
2019-05-02T06:15:41.717Z,1001.38
2019-05-02T06:16:46.321Z,1001.38
2019-05-02T06:17:42.666Z,1001.43
2019-05-02T06:18:43.431Z,1001.43
2019-05-02T06:19:41.640Z,1001.42
2019-05-02T06:20:41.625Z,1001.37
2019-05-02T06:21:45.111Z,1001.43
2019-05-02T06:22:42.604Z,1001.40
2019-05-02T06:23:41.700Z,1001.34
2019-05-02T06:24:41.587Z,1001.34
2019-05-02T06:25:42.686Z,1001.32
2019-05-02T06:26:44.777Z,1001.24
2019-05-02T06:27:42.562Z,1001.32
2019-05-02T06:28:43.238Z,1001.30
2019-05-02T06:29:41.577Z,1001.25
2019-05-02T06:30:41.528Z,1001.21
2019-05-02T06:31:43.032Z,1001.25
2019-05-02T06:32:41.496Z,1001.24
2019-05-02T06:33:41.484Z,1001.23
2019-05-02T06:34:46.477Z,1001.20
2019-05-02T06:35:42.473Z,1001.19
2019-05-02T06:36:41.453Z,1001.16
2019-05-02T06:37:45.388Z,1001.19
2019-05-02T06:38:42.429Z,1001.19
2019-05-02T06:39:41.426Z,1001.16
2019-05-02T06:40:44.619Z,1001.16
2019-05-02T06:41:42.405Z,1001.18
2019-05-02T06:42:41.397Z,1001.08
2019-05-02T06:43:46.426Z,1001.07
2019-05-02T06:44:42.378Z,1001.08
2019-05-02T06:45:41.384Z,1001.10
2019-05-02T06:46:41.348Z,1001.05
2019-05-02T06:47:43.503Z,1001.10
2019-05-02T06:48:41.326Z,1001.05
2019-05-02T06:49:41.309Z,1001.12
2019-05-02T06:50:41.298Z,1001.05
2019-05-02T06:51:41.307Z,1001.12
2019-05-02T06:52:41.282Z,1001.03
2019-05-02T06:53:46.528Z,1001.02
2019-05-02T06:54:42.262Z,1001.01
2019-05-02T06:55:41.243Z,1001.02
2019-05-02T06:56:43.179Z,1001.01
2019-05-02T06:57:42.233Z,1001.03
2019-05-02T06:58:41.908Z,1001.07
2019-05-02T06:59:41.210Z,1001.03
2019-05-02T07:00:56.479Z,1001.04
2019-05-02T07:01:42.177Z,1001.00
2019-05-02T07:02:41.166Z,1001.04
2019-05-02T07:03:45.866Z,1001.02
2019-05-02T07:04:42.152Z,1001.03
2019-05-02T07:05:41.163Z,1001.01
2019-05-02T07:06:50.208Z,1001.02
2019-05-02T07:07:42.114Z,1000.99
2019-05-02T07:08:41.128Z,1001.02
2019-05-02T07:09:41.864Z,1001.04
2019-05-02T07:10:44.745Z,1001.03
2019-05-02T07:11:41.178Z,1001.10
2019-05-02T07:12:41.058Z,1001.12
2019-05-02T07:13:42.027Z,1001.05
2019-05-02T07:14:41.037Z,1001.13
2019-05-02T07:15:41.057Z,1001.09
2019-05-02T07:16:41.025Z,1001.11
2019-05-02T07:17:41.006Z,1001.16
2019-05-02T07:18:42.114Z,1001.12
2019-05-02T07:19:41.987Z,1001.18
2019-05-02T07:20:42.551Z,1001.19
2019-05-02T07:21:40.997Z,1001.15
2019-05-02T07:22:41.027Z,1001.14
2019-05-02T07:23:40.946Z,1001.16
2019-05-02T07:24:40.932Z,1001.18
2019-05-02T07:25:43.874Z,1001.17
2019-05-02T07:26:40.907Z,1001.15
2019-05-02T07:27:40.912Z,1001.15
2019-05-02T07:28:45.755Z,1001.16
2019-05-02T07:29:41.876Z,1001.19
2019-05-02T07:30:40.874Z,1001.21
2019-05-02T07:31:42.992Z,1001.16
2019-05-02T07:32:41.840Z,1001.12
2019-05-02T07:33:40.842Z,1001.19
2019-05-02T07:34:44.130Z,1001.15
2019-05-02T07:35:41.821Z,1001.17
2019-05-02T07:36:40.818Z,1001.13
2019-05-02T07:37:44.136Z,1001.14
2019-05-02T07:38:41.777Z,1001.17
2019-05-02T07:39:41.295Z,1001.13
2019-05-02T07:40:40.760Z,1001.12
2019-05-02T07:41:40.802Z,1001.16
2019-05-02T07:42:41.875Z,1001.15
2019-05-02T07:43:40.729Z,1001.15
2019-05-02T07:44:40.757Z,1001.18
2019-05-02T07:45:45.450Z,1001.20
2019-05-02T07:46:51.550Z,1001.20
2019-05-02T07:47:42.488Z,1001.23
2019-05-02T07:48:43.551Z,1001.22
2019-05-02T07:49:40.665Z,1001.20
2019-05-02T07:50:41.181Z,1001.18
2019-05-02T07:51:41.636Z,1001.22
2019-05-02T07:52:41.264Z,1001.20
2019-05-02T07:53:44.451Z,1001.22
2019-05-02T07:54:41.603Z,1001.22
2019-05-02T07:55:42.664Z,1001.17
2019-05-02T07:56:40.586Z,1001.17
2019-05-02T07:57:40.573Z,1001.23
2019-05-02T07:58:47.022Z,1001.18
2019-05-02T07:59:41.550Z,1001.14
2019-05-02T08:00:40.564Z,1001.16
2019-05-02T08:01:44.681Z,1001.18
2019-05-02T08:02:40.521Z,1001.11
2019-05-02T08:03:40.512Z,1001.19
2019-05-02T08:04:43.657Z,1001.15
2019-05-02T08:05:40.493Z,1001.15
2019-05-02T08:06:44.617Z,1001.11
2019-05-02T08:07:41.487Z,1001.09
2019-05-02T08:08:40.460Z,1001.11
2019-05-02T08:09:43.991Z,1001.11
2019-05-02T08:10:40.432Z,1001.09
2019-05-02T08:11:40.433Z,1001.11
2019-05-02T08:12:40.415Z,1001.08
2019-05-02T08:13:40.421Z,1001.11
2019-05-02T08:14:40.391Z,1001.08
2019-05-02T08:15:40.379Z,1001.06
2019-05-02T08:16:40.368Z,1001.08
2019-05-02T08:17:40.368Z,1001.07
2019-05-02T08:18:40.362Z,1001.10
2019-05-02T08:19:41.901Z,1001.04
2019-05-02T08:20:40.324Z,1001.09
2019-05-02T08:21:40.322Z,1001.04
2019-05-02T08:22:44.085Z,1001.06
2019-05-02T08:23:41.313Z,1001.02
2019-05-02T08:24:40.282Z,1001.06
2019-05-02T08:25:41.531Z,1001.00
2019-05-02T08:26:41.260Z,1001.00
2019-05-02T08:27:40.250Z,1001.00
2019-05-02T08:28:40.256Z,1001.11
2019-05-02T08:29:40.229Z,1000.98
2019-05-02T08:30:41.764Z,1001.04
2019-05-02T08:31:40.213Z,1000.99
2019-05-02T08:32:40.201Z,1001.01
2019-05-02T08:33:40.199Z,1000.99
2019-05-02T08:34:40.179Z,1000.93
2019-05-02T08:35:47.841Z,1000.96
2019-05-02T08:36:40.157Z,1000.96
2019-05-02T08:37:41.081Z,1000.99
2019-05-02T08:38:40.139Z,1001.03
2019-05-02T08:39:40.122Z,1001.01
2019-05-02T08:40:42.351Z,1001.04
2019-05-02T08:41:41.100Z,1001.04
2019-05-02T08:42:40.084Z,1000.98
2019-05-02T08:43:47.147Z,1001.00
2019-05-02T08:44:51.105Z,1001.03
2019-05-02T08:45:40.057Z,1001.01
2019-05-02T08:46:51.544Z,1001.00
2019-05-02T08:47:41.034Z,1001.00
2019-05-02T08:48:41.808Z,1001.05
2019-05-02T08:49:42.396Z,1000.99
2019-05-02T08:50:40.002Z,1001.00
2019-05-02T08:51:41.581Z,1001.01
2019-05-02T08:52:42.089Z,1001.01
2019-05-02T08:53:52.201Z,1001.00
2019-05-02T08:55:49.741Z,1000.98
2019-05-02T08:56:58.956Z,1001.00
2019-05-02T08:57:57.504Z,1000.95
2019-05-02T08:58:58.047Z,1000.98
2019-05-02T08:59:49.679Z,1001.02
2019-05-02T09:00:49.674Z,1001.00
2019-05-02T09:01:51.447Z,1000.96
2019-05-02T09:02:49.641Z,1000.97
2019-05-02T09:03:55.148Z,1000.94
2019-05-02T09:04:58.202Z,1000.92
2019-05-02T09:05:50.626Z,1001.03
2019-05-02T09:06:53.139Z,1000.93
2019-05-02T09:07:50.589Z,1000.97
2019-05-02T09:08:51.506Z,1000.99
2019-05-02T09:09:49.565Z,1000.96
2019-05-02T09:10:49.559Z,1000.94
2019-05-02T09:12:04.940Z,1000.94
2019-05-02T09:12:52.096Z,1000.92
2019-05-02T09:13:49.529Z,1000.97
2019-05-02T09:14:49.509Z,1000.93
2019-05-02T09:15:51.596Z,1000.97
2019-05-02T09:16:49.494Z,1000.97
2019-05-02T09:17:54.469Z,1000.99
2019-05-02T09:18:53.800Z,1001.00
2019-05-02T09:20:00.333Z,1001.00
2019-05-02T09:20:52.562Z,1001.00
2019-05-02T09:21:52.595Z,1001.01
2019-05-02T09:22:52.168Z,1000.94
2019-05-02T09:23:51.756Z,1000.92
2019-05-02T09:24:49.402Z,1000.97
2019-05-02T09:25:49.388Z,1001.05
2019-05-02T09:26:49.383Z,1001.05
2019-05-02T09:27:49.365Z,1000.99
2019-05-02T09:28:49.355Z,1001.01
2019-05-02T09:29:49.361Z,1001.01
2019-05-02T09:30:49.336Z,1000.97
2019-05-02T09:31:49.321Z,1000.88
2019-05-02T09:32:49.310Z,1000.96
2019-05-02T09:33:49.304Z,1001.01
2019-05-02T09:34:49.304Z,1000.94
2019-05-02T09:35:49.294Z,1000.98
2019-05-02T09:36:49.266Z,1000.95
2019-05-02T09:37:49.255Z,1000.92
2019-05-02T09:38:55.981Z,1000.93
2019-05-02T09:39:52.462Z,1000.98
2019-05-02T09:40:52.542Z,1000.96
2019-05-02T09:41:52.255Z,1000.93
2019-05-02T09:42:53.430Z,1000.93
2019-05-02T09:43:52.036Z,1000.90
2019-05-02T09:44:55.772Z,1000.89
2019-05-02T09:45:51.984Z,1000.89
2019-05-02T09:46:52.995Z,1000.88
2019-05-02T09:48:01.263Z,1000.88
2019-05-02T09:48:51.865Z,1000.88
2019-05-02T09:49:50.401Z,1000.86
2019-05-02T09:50:49.133Z,1000.88
2019-05-02T09:51:50.424Z,1000.92
2019-05-02T09:52:52.255Z,1000.88
2019-05-02T09:53:49.092Z,1000.86
2019-05-02T09:54:49.074Z,1000.85
2019-05-02T09:55:52.116Z,1000.85
2019-05-02T09:56:52.167Z,1000.85
2019-05-02T09:57:49.037Z,1000.84
2019-05-02T09:58:49.458Z,1000.84
2019-05-02T09:59:50.596Z,1000.81
2019-05-02T10:00:50.003Z,1000.91
2019-05-02T10:01:49.007Z,1000.82
2019-05-02T10:02:48.983Z,1000.80
2019-05-02T10:03:48.982Z,1000.81
2019-05-02T10:04:48.966Z,1000.83
2019-05-02T10:05:48.969Z,1000.87
2019-05-02T10:06:48.951Z,1000.89
2019-05-02T10:07:48.939Z,1000.85
2019-05-02T10:08:48.923Z,1000.80
2019-05-02T10:09:48.915Z,1000.83
2019-05-02T10:10:48.893Z,1000.85
2019-05-02T10:11:48.895Z,1000.81
2019-05-02T10:12:48.885Z,1000.71
2019-05-02T10:13:48.865Z,1000.79
2019-05-02T10:14:48.852Z,1000.86
2019-05-02T10:15:48.847Z,1000.79
2019-05-02T10:16:48.835Z,1000.76
2019-05-02T10:17:48.837Z,1000.84
2019-05-02T10:18:48.813Z,1000.82
2019-05-02T10:19:52.751Z,1000.78
2019-05-02T10:20:49.800Z,1000.76
2019-05-02T10:21:54.365Z,1000.78
2019-05-02T10:22:49.785Z,1000.77
2019-05-02T10:23:51.754Z,1000.72
2019-05-02T10:24:51.860Z,1000.75
2019-05-02T10:25:48.737Z,1000.71
2019-05-02T10:26:48.720Z,1000.73
2019-05-02T10:27:57.579Z,1000.71
2019-05-02T10:28:50.427Z,1000.73
2019-05-02T10:29:48.695Z,1000.73
2019-05-02T10:30:52.527Z,1000.71
2019-05-02T10:31:49.667Z,1000.71
2019-05-02T10:32:52.921Z,1000.72
2019-05-02T10:33:49.640Z,1000.66
2019-05-02T10:34:53.136Z,1000.72
2019-05-02T10:35:49.627Z,1000.71
2019-05-02T10:36:54.167Z,1000.72
2019-05-02T10:37:49.615Z,1000.68
2019-05-02T10:38:48.969Z,1000.66
2019-05-02T10:39:48.593Z,1000.70
2019-05-02T10:40:53.470Z,1000.71
2019-05-02T10:41:49.560Z,1000.74
2019-05-02T10:42:48.542Z,1000.76
2019-05-02T10:43:53.922Z,1000.68
2019-05-02T10:44:49.525Z,1000.65
2019-05-02T10:45:54.860Z,1000.62
2019-05-02T10:46:49.498Z,1000.63
2019-05-02T10:47:48.498Z,1000.65
2019-05-02T10:48:48.477Z,1000.61
2019-05-02T10:49:48.479Z,1000.61
2019-05-02T10:50:48.502Z,1000.62
2019-05-02T10:51:50.982Z,1000.64
2019-05-02T10:52:48.434Z,1000.65
2019-05-02T10:53:52.626Z,1000.63
2019-05-02T10:54:49.411Z,1000.63
2019-05-02T10:55:48.401Z,1000.67
2019-05-02T10:56:48.404Z,1000.65
2019-05-02T10:57:48.893Z,1000.58
2019-05-02T10:58:48.369Z,1000.67
2019-05-02T10:59:48.362Z,1000.61
2019-05-02T11:00:48.352Z,1000.63
2019-05-02T11:01:48.335Z,1000.67
2019-05-02T11:02:48.334Z,1000.71
2019-05-02T11:03:48.321Z,1000.75
2019-05-02T11:04:48.304Z,1000.59
2019-05-02T11:05:48.294Z,1000.60
2019-05-02T11:06:48.315Z,1000.68
2019-05-02T11:07:48.270Z,1000.75
2019-05-02T11:08:48.259Z,1000.70
2019-05-02T11:09:48.250Z,1000.69
2019-05-02T11:10:48.243Z,1000.59
2019-05-02T11:11:48.227Z,1000.71
2019-05-02T11:12:48.226Z,1000.65
2019-05-02T11:13:48.211Z,1000.65
2019-05-02T11:14:48.198Z,1000.67
2019-05-02T11:15:48.184Z,1000.68
2019-05-02T11:16:48.247Z,1000.61
2019-05-02T11:18:56.963Z,1000.65
2019-05-02T11:19:56.912Z,1000.63
2019-05-02T11:20:58.953Z,1000.67
2019-05-02T11:21:59.097Z,1000.62
2019-05-02T11:22:56.877Z,1000.69
2019-05-02T11:23:57.037Z,1000.71
2019-05-02T11:24:56.873Z,1000.67
2019-05-02T11:25:56.847Z,1000.67
2019-05-02T11:26:56.838Z,1000.71
2019-05-02T11:27:57.307Z,1000.68
2019-05-02T11:28:56.820Z,1000.68
2019-05-02T11:29:56.803Z,1000.69
2019-05-02T11:30:57.158Z,1000.68
2019-05-02T11:31:56.786Z,1000.71
2019-05-02T11:32:56.774Z,1000.65
2019-05-02T11:33:56.766Z,1000.70
2019-05-02T11:34:56.760Z,1000.68
2019-05-02T11:35:56.744Z,1000.68
2019-05-02T11:36:56.727Z,1000.73
2019-05-02T11:37:56.724Z,1000.64
2019-05-02T11:39:09.366Z,1000.65
2019-05-02T11:40:00.894Z,1000.68
2019-05-02T11:40:56.681Z,1000.58
2019-05-02T11:41:56.671Z,1000.68
2019-05-02T11:42:57.347Z,1000.59
2019-05-02T11:43:57.649Z,1000.67
2019-05-02T11:44:56.676Z,1000.69
2019-05-02T11:46:02.574Z,1000.63
2019-05-02T11:46:57.615Z,1000.63
2019-05-02T11:48:03.391Z,1000.68
2019-05-02T11:48:58.669Z,1000.64
2019-05-02T11:49:56.587Z,1000.64
2019-05-02T11:50:58.070Z,1000.59
2019-05-02T11:51:57.272Z,1000.61
2019-05-02T11:52:56.551Z,1000.65
2019-05-02T11:53:59.332Z,1000.54
2019-05-02T11:54:57.530Z,1000.56
2019-05-02T11:55:58.247Z,1000.56
2019-05-02T11:56:57.507Z,1000.60
2019-05-02T11:58:01.004Z,1000.60
2019-05-02T11:58:57.485Z,1000.53
2019-05-02T11:59:59.358Z,1000.53
2019-05-02T12:00:57.462Z,1000.54
2019-05-02T12:01:59.886Z,1000.50
2019-05-02T12:02:58.263Z,1000.58
2019-05-02T12:03:56.431Z,1000.52
2019-05-02T12:04:56.428Z,1000.50
2019-05-02T12:05:56.414Z,1000.55
2019-05-02T12:07:00.890Z,1000.54
2019-05-02T12:08:02.612Z,1000.51
2019-05-02T12:08:57.379Z,1000.61
2019-05-02T12:09:57.180Z,1000.59
2019-05-02T12:10:56.358Z,1000.56
2019-05-02T12:11:56.718Z,1000.56
2019-05-02T12:12:56.358Z,1000.56
2019-05-02T12:13:57.044Z,1000.59
2019-05-02T12:14:56.310Z,1000.57
2019-05-02T12:15:56.364Z,1000.56
2019-05-02T12:16:56.300Z,1000.59
2019-05-02T12:17:56.283Z,1000.53
2019-05-02T12:19:08.563Z,1000.53
2019-05-02T12:19:57.254Z,1000.57
2019-05-02T12:20:56.246Z,1000.50
2019-05-02T12:21:56.238Z,1000.55
2019-05-02T12:22:56.252Z,1000.55
2019-05-02T12:23:56.217Z,1000.53
2019-05-02T12:24:56.220Z,1000.48
2019-05-02T12:25:56.190Z,1000.53
2019-05-02T12:26:56.183Z,1000.45
2019-05-02T12:27:56.179Z,1000.48
2019-05-02T12:28:56.170Z,1000.53
2019-05-02T12:31:07.973Z,1000.50
2019-05-02T12:32:05.909Z,1000.50
2019-05-02T12:33:04.888Z,1000.44
2019-05-02T12:34:04.915Z,1000.43
2019-05-02T12:35:04.865Z,1000.49
2019-05-02T12:36:04.938Z,1000.44
2019-05-02T12:37:04.850Z,1000.42
2019-05-02T12:38:04.836Z,1000.41
2019-05-02T12:39:04.823Z,1000.41
2019-05-02T12:40:04.825Z,1000.40
2019-05-02T12:41:04.807Z,1000.41
2019-05-02T12:42:05.152Z,1000.36
2019-05-02T12:43:04.786Z,1000.44
2019-05-02T12:44:04.776Z,1000.40
2019-05-02T12:45:04.773Z,1000.40
2019-05-02T12:46:04.804Z,1000.38
2019-05-02T12:47:04.737Z,1000.42
2019-05-02T12:48:04.730Z,1000.39
2019-05-02T12:49:04.719Z,1000.34
2019-05-02T12:50:04.716Z,1000.40
2019-05-02T12:51:04.712Z,1000.41
2019-05-02T12:52:04.684Z,1000.30
2019-05-02T12:53:04.679Z,1000.39
2019-05-02T12:54:04.662Z,1000.32
2019-05-02T12:55:04.660Z,1000.33
2019-05-02T12:56:04.682Z,1000.32
2019-05-02T12:57:04.633Z,1000.33
2019-05-02T12:58:04.627Z,1000.30
2019-05-02T12:59:04.615Z,1000.37
2019-05-02T13:00:04.628Z,1000.33
2019-05-02T13:01:04.593Z,1000.31
2019-05-02T13:02:04.585Z,1000.29
2019-05-02T13:03:04.565Z,1000.31
2019-05-02T13:04:04.563Z,1000.27
2019-05-02T13:05:04.545Z,1000.27
2019-05-02T13:06:04.554Z,1000.25
2019-05-02T13:07:04.527Z,1000.28
2019-05-02T13:08:04.514Z,1000.20
2019-05-02T13:09:04.513Z,1000.22
2019-05-02T13:10:04.496Z,1000.26
2019-05-02T13:11:06.626Z,1000.28
2019-05-02T13:12:04.476Z,1000.28
2019-05-02T13:13:04.461Z,1000.21
2019-05-02T13:14:04.452Z,1000.21
2019-05-02T13:15:04.438Z,1000.21
2019-05-02T13:16:04.531Z,1000.19
2019-05-02T13:17:05.774Z,1000.19
2019-05-02T13:18:04.411Z,1000.17
2019-05-02T13:19:06.139Z,1000.15
2019-05-02T13:20:04.568Z,1000.20
2019-05-02T13:21:07.984Z,1000.22
2019-05-02T13:22:05.395Z,1000.11
2019-05-02T13:23:04.361Z,1000.12
2019-05-02T13:24:07.500Z,1000.15
2019-05-02T13:25:05.346Z,1000.11
2019-05-02T13:26:10.229Z,1000.15
2019-05-02T13:27:05.316Z,1000.12
2019-05-02T13:28:04.313Z,1000.15
2019-05-02T13:29:04.289Z,1000.13
2019-05-02T13:30:04.289Z,1000.14
2019-05-02T13:31:04.271Z,1000.11
2019-05-02T13:32:04.266Z,1000.14
2019-05-02T13:33:04.270Z,1000.12
2019-05-02T13:34:06.579Z,1000.10
2019-05-02T13:35:05.229Z,1000.12
2019-05-02T13:36:04.214Z,1000.08
2019-05-02T13:37:04.209Z,1000.07
2019-05-02T13:38:04.192Z,1000.07
2019-05-02T13:39:04.207Z,1000.05
2019-05-02T13:40:04.175Z,1000.03
2019-05-02T13:41:04.172Z,1000.02
2019-05-02T13:42:04.153Z,1000.05
2019-05-02T13:43:04.140Z,1000.04
2019-05-02T13:44:04.134Z,1000.03
2019-05-02T13:45:04.162Z,999.99
2019-05-02T13:46:04.106Z,1000.00
2019-05-02T13:47:04.101Z,1000.02
2019-05-02T13:48:04.094Z,999.99
2019-05-02T13:49:04.075Z,999.96
2019-05-02T13:50:04.176Z,1000.04
2019-05-02T13:51:04.205Z,999.98
2019-05-02T13:52:04.044Z,999.90
2019-05-02T13:53:04.032Z,999.97
2019-05-02T13:54:04.022Z,999.98
2019-05-02T13:55:04.010Z,999.98
2019-05-02T13:56:04.002Z,999.91
2019-05-02T13:57:04.001Z,999.91
2019-05-02T13:58:03.986Z,999.93
2019-05-02T13:59:03.974Z,999.95
2019-05-02T14:00:03.961Z,999.96
2019-05-02T14:01:03.962Z,999.94
2019-05-02T14:02:03.941Z,999.94
2019-05-02T14:03:03.933Z,999.85
2019-05-02T14:04:10.021Z,999.85
2019-05-02T14:05:04.917Z,999.78
2019-05-02T14:06:03.934Z,999.77
2019-05-02T14:07:07.704Z,999.81
2019-05-02T14:08:04.874Z,999.80
2019-05-02T14:09:07.483Z,999.81
2019-05-02T14:10:04.858Z,999.76
2019-05-02T14:11:03.845Z,999.74
2019-05-02T14:12:03.840Z,999.68
2019-05-02T14:13:03.839Z,999.72
2019-05-02T14:14:03.807Z,999.68
2019-05-02T14:15:03.797Z,999.66
2019-05-02T14:16:03.791Z,999.60
2019-05-02T14:17:03.790Z,999.69
2019-05-02T14:18:03.769Z,999.72
2019-05-02T14:19:03.766Z,999.72
2019-05-02T14:20:10.800Z,999.66
2019-05-02T14:21:04.734Z,999.68
2019-05-02T14:22:03.729Z,999.67
2019-05-02T14:23:03.711Z,999.64
2019-05-02T14:24:03.710Z,999.69
2019-05-02T14:25:03.695Z,999.67
2019-05-02T14:26:03.684Z,999.70
2019-05-02T14:27:07.088Z,999.75
2019-05-02T14:28:04.661Z,999.76
2019-05-02T14:29:07.256Z,999.62
2019-05-02T14:30:04.643Z,999.66
2019-05-02T14:31:03.639Z,999.67
2019-05-02T14:32:03.616Z,999.70
2019-05-02T14:33:03.609Z,999.65
2019-05-02T14:34:03.595Z,999.62
2019-05-02T14:35:03.591Z,999.57
2019-05-02T14:36:03.576Z,999.64
2019-05-02T14:37:03.574Z,999.61
2019-05-02T14:38:03.555Z,999.62
2019-05-02T14:39:03.541Z,999.48
2019-05-02T14:40:03.535Z,999.51
2019-05-02T14:41:03.524Z,999.53
2019-05-02T14:42:03.522Z,999.56
2019-05-02T14:43:06.024Z,999.55
2019-05-02T14:44:03.494Z,999.55
2019-05-02T14:45:11.578Z,999.58
2019-05-02T14:46:04.470Z,999.51
2019-05-02T14:47:03.480Z,999.56
2019-05-02T14:48:18.060Z,999.52
2019-05-02T14:49:04.432Z,999.45
2019-05-02T14:50:05.076Z,999.45
2019-05-02T14:51:03.411Z,999.46
2019-05-02T14:52:06.981Z,999.41
2019-05-02T14:53:03.391Z,999.42
2019-05-02T14:54:07.967Z,999.40
2019-05-02T14:55:04.370Z,999.45
2019-05-02T14:56:06.137Z,999.39
2019-05-02T14:57:03.358Z,999.37
2019-05-02T14:58:05.844Z,999.38
2019-05-02T14:59:03.378Z,999.40
2019-05-02T15:00:03.514Z,999.40
2019-05-02T15:01:03.304Z,999.39
2019-05-02T15:02:07.454Z,999.45
2019-05-02T15:03:03.441Z,999.46
2019-05-02T15:04:08.101Z,999.40
2019-05-02T15:05:04.273Z,999.42
2019-05-02T15:06:06.812Z,999.42
2019-05-02T15:07:03.255Z,999.44
2019-05-02T15:08:06.820Z,999.38
2019-05-02T15:09:03.219Z,999.43
2019-05-02T15:10:06.490Z,999.35
2019-05-02T15:11:03.530Z,999.36
2019-05-02T15:12:08.237Z,999.38
2019-05-02T15:13:04.180Z,999.46
2019-05-02T15:14:03.227Z,999.45
2019-05-02T15:15:03.164Z,999.45
2019-05-02T15:16:03.144Z,999.39
2019-05-02T15:17:03.139Z,999.46
2019-05-02T15:18:03.133Z,999.41
2019-05-02T15:19:03.112Z,999.52
2019-05-02T15:20:03.103Z,999.35
2019-05-02T15:21:03.973Z,999.43
2019-05-02T15:22:04.078Z,999.37
2019-05-02T15:23:07.244Z,999.42
2019-05-02T15:24:04.063Z,999.46
2019-05-02T15:25:03.069Z,999.41
2019-05-02T15:26:03.037Z,999.43
2019-05-02T15:27:11.456Z,999.42
2019-05-02T15:28:04.015Z,999.46
2019-05-02T15:29:03.015Z,999.45
2019-05-02T15:30:06.880Z,999.39
2019-05-02T15:31:04.905Z,999.41
2019-05-02T15:32:07.118Z,999.36
2019-05-02T15:33:03.125Z,999.41
2019-05-02T15:34:05.076Z,999.38
2019-05-02T15:35:02.942Z,999.34
2019-05-02T15:36:07.302Z,999.32
2019-05-02T15:37:02.948Z,999.31
2019-05-02T15:38:06.658Z,999.30
2019-05-02T15:41:07.581Z,999.24
2019-05-02T15:42:03.869Z,999.17
2019-05-02T15:43:09.288Z,999.20
2019-05-02T15:44:03.860Z,999.21
2019-05-02T15:45:05.669Z,999.18
2019-05-02T15:46:02.825Z,999.13
2019-05-02T15:47:05.602Z,999.11
2019-05-02T15:48:02.816Z,999.15
2019-05-02T15:49:05.697Z,999.09
2019-05-02T15:50:03.120Z,999.09
2019-05-02T15:51:06.176Z,999.15
2019-05-02T15:52:03.765Z,999.08
2019-05-02T15:53:09.461Z,999.07
2019-05-02T15:54:08.471Z,999.04
2019-05-02T15:55:04.275Z,999.06
2019-05-02T15:56:02.732Z,999.05
2019-05-02T15:57:05.487Z,999.01
2019-05-02T15:58:02.709Z,999.02
2019-05-02T15:59:06.051Z,999.03
2019-05-02T16:00:02.679Z,998.97
2019-05-02T16:01:04.948Z,998.98
2019-05-02T16:02:03.016Z,998.98
2019-05-02T16:03:04.347Z,999.01
2019-05-02T16:04:02.640Z,998.99
2019-05-02T16:05:05.415Z,999.00
2019-05-02T16:06:02.610Z,998.94
2019-05-02T16:07:07.139Z,999.02
2019-05-02T16:08:08.258Z,998.97
2019-05-02T16:09:03.589Z,998.95
2019-05-02T16:10:03.919Z,998.90
2019-05-02T16:11:02.955Z,998.88
2019-05-02T16:12:03.083Z,998.96
2019-05-02T16:13:03.763Z,998.94
2019-05-02T16:14:03.536Z,998.91
2019-05-02T16:15:07.224Z,998.89
2019-05-02T16:16:05.426Z,998.93
2019-05-02T16:17:03.768Z,998.85
2019-05-02T16:18:05.236Z,998.86
2019-05-02T16:19:02.476Z,998.90
2019-05-02T16:20:09.140Z,998.86
2019-05-02T16:21:07.537Z,998.84
2019-05-02T16:22:06.645Z,998.86
2019-05-02T16:23:03.431Z,998.81
2019-05-02T16:24:10.848Z,998.82
2019-05-02T16:25:03.420Z,998.86
2019-05-02T16:26:05.827Z,998.86
2019-05-02T16:27:03.406Z,998.82
2019-05-02T16:28:10.212Z,998.75
2019-05-02T16:29:02.917Z,998.73
2019-05-02T16:30:06.030Z,998.75
2019-05-02T16:31:03.341Z,998.77
2019-05-02T16:32:03.548Z,998.80
2019-05-02T16:33:02.793Z,998.75
2019-05-02T16:34:02.416Z,998.77
2019-05-02T16:35:07.156Z,998.69
2019-05-02T16:36:03.302Z,998.74
2019-05-02T16:37:02.283Z,998.71
2019-05-02T16:38:02.279Z,998.72
2019-05-02T16:39:05.203Z,998.72
2019-05-02T16:40:03.251Z,998.68
2019-05-02T16:41:09.600Z,998.72
2019-05-02T16:42:04.752Z,998.65
2019-05-02T16:43:02.812Z,998.63
2019-05-02T16:44:02.212Z,998.68
2019-05-02T16:45:02.722Z,998.61
2019-05-02T16:46:02.186Z,998.65
2019-05-02T16:47:02.307Z,998.59
2019-05-02T16:48:03.220Z,998.61
2019-05-02T16:49:02.177Z,998.62
2019-05-02T16:50:02.538Z,998.58
2019-05-02T16:51:02.269Z,998.59
2019-05-02T16:52:07.337Z,998.65
2019-05-02T16:53:03.106Z,998.54
2019-05-02T16:54:05.011Z,998.59
2019-05-02T16:55:02.927Z,998.54
2019-05-02T16:56:05.554Z,998.51
2019-05-02T16:57:02.068Z,998.52
2019-05-02T16:58:07.199Z,998.55
2019-05-02T16:59:03.047Z,998.48
2019-05-02T17:00:05.952Z,998.54
2019-05-02T17:01:02.025Z,998.51
2019-05-02T17:02:07.525Z,998.50
2019-05-02T17:03:03.880Z,998.50
2019-05-02T17:04:03.107Z,998.50
2019-05-02T17:05:08.017Z,998.49
2019-05-02T17:06:02.980Z,998.50
2019-05-02T17:07:05.673Z,998.52
2019-05-02T17:08:02.352Z,998.46
2019-05-02T17:09:02.304Z,998.52
2019-05-02T17:10:02.901Z,998.49
2019-05-02T17:11:02.144Z,998.44
2019-05-02T17:12:02.054Z,998.46
2019-05-02T17:13:02.760Z,998.43
2019-05-02T17:14:02.374Z,998.48
2019-05-02T17:15:01.877Z,998.43
2019-05-02T17:16:06.929Z,998.39
2019-05-02T17:17:02.851Z,998.41
2019-05-02T17:18:05.138Z,998.45
2019-05-02T17:19:02.847Z,998.43
2019-05-02T17:20:02.648Z,998.40
2019-05-02T17:21:02.838Z,998.44
2019-05-02T17:22:02.609Z,998.42
2019-05-02T17:23:06.597Z,998.41
2019-05-02T17:24:02.775Z,998.42
2019-05-02T17:25:05.798Z,998.44
2019-05-02T17:26:01.762Z,998.44
2019-05-02T17:27:02.585Z,998.42
2019-05-02T17:28:06.989Z,998.44
2019-05-02T17:29:02.721Z,998.52
2019-05-02T17:30:03.785Z,998.50
2019-05-02T17:31:01.698Z,998.49
2019-05-02T17:32:02.178Z,998.47
2019-05-02T17:33:01.930Z,998.49
2019-05-02T17:34:02.734Z,998.50
2019-05-02T17:35:02.636Z,998.47
2019-05-02T17:36:02.650Z,998.50
2019-05-02T17:37:07.317Z,998.48
2019-05-02T17:38:02.721Z,998.49
2019-05-02T17:39:06.781Z,998.50
2019-05-02T17:40:02.611Z,998.48
2019-05-02T17:41:06.411Z,998.47
2019-05-02T17:42:02.688Z,998.53
2019-05-02T17:43:05.491Z,998.49
2019-05-02T17:44:03.181Z,998.52
2019-05-02T17:45:03.842Z,998.49
2019-05-02T17:46:01.545Z,998.48
2019-05-02T17:47:01.846Z,998.50
2019-05-02T17:48:01.531Z,998.55
2019-05-02T17:49:02.559Z,998.56
2019-05-02T17:50:02.145Z,998.53
2019-05-02T17:51:02.172Z,998.53
2019-05-02T17:52:05.613Z,998.54
2019-05-02T17:53:03.053Z,998.55
2019-05-02T17:54:02.945Z,998.56
2019-05-02T17:55:02.086Z,998.59
2019-05-02T17:56:01.855Z,998.60
2019-05-02T17:57:02.198Z,998.59
2019-05-02T17:58:04.636Z,998.59